Santa Rosa de Viterbo, Brazil
Current Conditions -  °F | °C
As of 11:00 AM on Saturday 22 Nov 2014 (Local Time) from SBRP Reporting Station
Clear Clear  
Wind Chill: 88°   Ceiling: Unl
Heat Index: 88°   Visibility: 6mi
Dew Point: 59°   Wind: 7mph
Humidity: 38%   Direction: 310°NW
Pressure: 29.94"   Gusts: NA
Location:  21.47°S, 47.36°W
Report Text: SBRP 221300Z 31006KT CAVOK 31/15 Q1014
Loading
Personal Weather Stations






























Interactive Weather Map New forecast layout! Learn more

10-Day Weather Forecast

Advertisements
Track Severe Weather on mobile